Bojnik Airport

RS-0002 · Central Serbia, Serbia

METAR的历史 RS-0002 · Bojnik Airport

下面你可以看到过去几天的METARs。 选择年份以浏览从2007年开始的旧METAR。

2024年6月22日

时间 代码 天气 温度 能见度 天花板 METAR/SPECI
18:00
V
35 °C 10 km+ - Var Var 2 kt METAR LYNI 221600Z VRB02KT CAVOK 35/18 Q1007 NOSIG
17:30
V
36 °C 10 km+ - 130° 130° 3 kt METAR LYNI 221530Z 13003KT 110V170 CAVOK 36/19 Q1007 NOSIG
17:00
V
36 °C 10 km+ - Var Var 2 kt METAR LYNI 221500Z VRB02KT CAVOK 36/16 Q1008 NOSIG
16:30
V
37 °C 10 km+ - 120° 120° 3 kt METAR LYNI 221430Z 12003KT 070V150 CAVOK 37/17 Q1008 NOSIG
16:00
V
37 °C 10 km+ - Var Var 3 kt METAR LYNI 221400Z VRB03KT CAVOK 37/17 Q1008 NOSIG
15:30
V
37 °C 10 km+ - Var Var 5 kt METAR LYNI 221330Z VRB05KT CAVOK 37/17 Q1009 NOSIG
15:00
V
37 °C 10 km+ - 130° 130° 4 kt METAR LYNI 221300Z 13004KT 040V190 CAVOK 37/17 Q1009 NOSIG
14:30
V
37 °C 10 km+ - 180° 180° 5 kt METAR LYNI 221230Z 18005KT 120V260 CAVOK 37/19 Q1009 NOSIG
14:00
V
36 °C 10 km+ - 170° 170° 4 kt METAR LYNI 221200Z 17004KT 080V250 CAVOK 36/20 Q1010 NOSIG
13:30
V
36 °C 10 km+ - 360° 360° 0 kt METAR LYNI 221130Z 00000KT CAVOK 36/21 Q1010 NOSIG
13:00
V
35 °C 10 km+ - 220° 220° 1 kt METAR LYNI 221100Z 22001KT CAVOK 35/21 Q1010 NOSIG
12:30
V
34 °C 10 km+ - Var Var 2 kt METAR LYNI 221030Z VRB02KT CAVOK 34/22 Q1011 NOSIG
12:00
V
34 °C 10 km+ - Var Var 3 kt METAR LYNI 221000Z VRB03KT CAVOK 34/21 Q1011 NOSIG
11:30
V
33 °C 10 km+ - 160° 160° 3 kt METAR LYNI 220930Z 16003KT 070V230 CAVOK 33/20 Q1011 NOSIG
11:00
V
32 °C 10 km+ - Var Var 2 kt METAR LYNI 220900Z VRB02KT CAVOK 32/20 Q1012 NOSIG
10:30
V
32 °C 10 km+ - Var Var 3 kt METAR LYNI 220830Z VRB03KT CAVOK 32/20 Q1012 NOSIG
10:00
V
30 °C 10 km+ - Var Var 3 kt METAR LYNI 220800Z VRB03KT CAVOK 30/19 Q1012 NOSIG
09:30
V
29 °C 10 km+ - Var Var 3 kt METAR LYNI 220730Z VRB03KT CAVOK 29/21 Q1013 NOSIG
09:00
V
28 °C 10 km+ - 200° 200° 3 kt METAR LYNI 220700Z 20003KT 120V260 CAVOK 28/21 Q1013 NOSIG
08:30
V
27 °C 10 km+ - 200° 200° 3 kt METAR LYNI 220630Z 20003KT 120V280 CAVOK 27/21 Q1013 NOSIG
08:00
V
26 °C 10 km+ - 190° 190° 3 kt METAR LYNI 220600Z 19003KT 140V250 CAVOK 26/21 Q1013 NOSIG
07:30
V
25 °C 10 km+ - Var Var 2 kt METAR LYNI 220530Z VRB02KT CAVOK 25/21 Q1013 NOSIG
07:00
V
23 °C 10 km+ - 360° 360° 0 kt METAR LYNI 220500Z 00000KT CAVOK 23/21 Q1013 NOSIG
06:30
V
22 °C 10 km+ - 360° 360° 0 kt METAR LYNI 220430Z 00000KT CAVOK 22/21 Q1013 NOSIG
06:00
V
22 °C 10 km+ - Var Var 1 kt METAR LYNI 220400Z VRB01KT CAVOK 22/20 Q1013 NOSIG
05:30
V
21 °C 10 km+ - 360° 360° 0 kt METAR LYNI 220330Z 00000KT CAVOK 21/20 Q1013 NOSIG
05:00
V
20 °C 10 km+ - 360° 360° 0 kt METAR LYNI 220300Z 00000KT CAVOK 20/20 Q1013 NOSIG
04:30
V
20 °C 10 km+ - 360° 360° 0 kt METAR LYNI 220230Z 00000KT CAVOK 20/20 Q1013 NOSIG
04:00
V
20 °C 10 km+ - 360° 360° 0 kt METAR LYNI 220200Z 00000KT CAVOK 20/20 Q1013 NOSIG
03:30
V
22 °C 10 km+ - 360° 360° 0 kt METAR LYNI 220130Z 00000KT CAVOK 22/20 Q1013 NOSIG
03:00
V
23 °C 10 km+ - 360° 360° 0 kt METAR LYNI 220100Z 00000KT CAVOK 23/20 Q1013 NOSIG
02:30
V
23 °C 10 km+ - 050° 050° 2 kt METAR LYNI 220030Z 05002KT CAVOK 23/20 Q1013 NOSIG
02:00
V
23 °C 10 km+ - 020° 020° 2 kt METAR LYNI 220000Z 02002KT CAVOK 23/20 Q1013 NOSIG
01:30
V
22 °C 10 km+ - 350° 350° 1 kt METAR LYNI 212330Z 35001KT CAVOK 22/20 Q1014 NOSIG
01:00
V
24 °C 10 km+ - Var Var 1 kt METAR LYNI 212300Z VRB01KT CAVOK 24/20 Q1014 NOSIG
00:30
V
24 °C 10 km+ - 360° 360° 0 kt METAR LYNI 212230Z 00000KT CAVOK 24/20 Q1014 NOSIG
00:00
V
25 °C 10 km+ - 040° 040° 1 kt METAR LYNI 212200Z 04001KT CAVOK 25/20 Q1014 NOSIG

2024年6月21日

时间 代码 天气 温度 能见度 天花板 METAR/SPECI
23:30
V
24 °C 10 km+ - 360° 360° 0 kt METAR LYNI 212130Z 00000KT CAVOK 24/20 Q1014 NOSIG
23:00
V
26 °C 10 km+ - Var Var 2 kt METAR LYNI 212100Z VRB02KT CAVOK 26/20 Q1014 NOSIG
22:30
V
25 °C 10 km+ - Var Var 1 kt METAR LYNI 212030Z VRB01KT CAVOK 25/20 Q1014 NOSIG
22:00
V
26 °C 10 km+ - Var Var 1 kt METAR LYNI 212000Z VRB01KT CAVOK 26/20 Q1014 NOSIG
21:30
V
27 °C 10 km+ - 360° 360° 0 kt METAR LYNI 211930Z 00000KT CAVOK 27/20 Q1014 NOSIG
21:00
V
29 °C 10 km+ - 360° 360° 0 kt METAR LYNI 211900Z 00000KT CAVOK 29/19 Q1014 NOSIG
20:30
V
30 °C 10 km+ - 360° 360° 0 kt METAR LYNI 211830Z 00000KT CAVOK 30/19 Q1014 NOSIG
20:00
V
30 °C 10 km+ - 360° 360° 0 kt METAR LYNI 211800Z 00000KT CAVOK 30/20 Q1014 NOSIG
19:30
V
32 °C 10 km+ - 050° 050° 4 kt METAR LYNI 211730Z 05004KT CAVOK 32/20 Q1014 NOSIG
19:00
V
33 °C 10 km+ - 040° 040° 3 kt METAR LYNI 211700Z 04003KT 360V070 CAVOK 33/20 Q1014 NOSIG
18:30
V
34 °C 10 km+ - 060° 060° 7 kt METAR LYNI 211630Z 06007KT 020V080 CAVOK 34/19 Q1014 NOSIG
18:00
V
34 °C 10 km+ - 060° 060° 6 kt METAR LYNI 211600Z 06006KT 020V080 CAVOK 34/19 Q1014 NOSIG
17:30
V
35 °C 10 km+ - 070° 070° 7 kt METAR LYNI 211530Z 07007KT 030V110 CAVOK 35/19 Q1015 NOSIG
17:00
V
35 °C 10 km+ - 070° 070° 6 kt METAR LYNI 211500Z 07006KT 020V120 CAVOK 35/19 Q1015 NOSIG
16:30
V
36 °C 10 km+ - 110° 110° 5 kt METAR LYNI 211430Z 11005KT 040V150 CAVOK 36/19 Q1015 NOSIG
16:00
V
36 °C 10 km+ - Var Var 2 kt METAR LYNI 211400Z VRB02KT CAVOK 36/19 Q1015 NOSIG
15:30
V
36 °C 10 km+ - Var Var 2 kt METAR LYNI 211330Z VRB02KT CAVOK 36/18 Q1016 NOSIG
15:00
V
36 °C 10 km+ - Var Var 2 kt METAR LYNI 211300Z VRB02KT CAVOK 36/18 Q1016 NOSIG
14:30
V
36 °C 10 km+ - Var Var 1 kt METAR LYNI 211230Z VRB01KT CAVOK 36/18 Q1016 NOSIG
14:00
V
35 °C 10 km+ - Var Var 3 kt METAR LYNI 211200Z VRB03KT CAVOK 35/19 Q1017 NOSIG
13:30
V
34 °C 10 km+ - Var Var 2 kt METAR LYNI 211130Z VRB02KT CAVOK 34/19 Q1017 NOSIG
13:00
V
34 °C 10 km+ - Var Var 2 kt METAR LYNI 211100Z VRB02KT CAVOK 34/19 Q1018 NOSIG
12:30
V
33 °C 10 km+ - Var Var 2 kt METAR LYNI 211030Z VRB02KT CAVOK 33/19 Q1018 NOSIG
12:00
V
33 °C 10 km+ - 280° 280° 4 kt METAR LYNI 211000Z 28004KT 210V330 CAVOK 33/19 Q1018 NOSIG
11:30
V
32 °C 10 km+ - Var Var 2 kt METAR LYNI 210930Z VRB02KT CAVOK 32/19 Q1019 NOSIG
11:00
V
31 °C 10 km+ - 070° 070° 3 kt METAR LYNI 210900Z 07003KT 010V140 CAVOK 31/19 Q1019 NOSIG
10:30
V
30 °C 10 km+ - Var Var 1 kt METAR LYNI 210830Z VRB01KT CAVOK 30/19 Q1019 NOSIG
10:00
V
29 °C 10 km+ - Var Var 3 kt METAR LYNI 210800Z VRB03KT CAVOK 29/20 Q1019 NOSIG
09:30
V
28 °C 10 km+ - Var Var 1 kt METAR LYNI 210730Z VRB01KT CAVOK 28/20 Q1020 NOSIG
09:00
V
27 °C 10 km+ - Var Var 2 kt METAR LYNI 210700Z VRB02KT CAVOK 27/20 Q1020 NOSIG
08:30
V
25 °C 10 km+ - Var Var 2 kt METAR LYNI 210630Z VRB02KT CAVOK 25/20 Q1020 NOSIG
08:00
V
24 °C 10 km+ - Var Var 2 kt METAR LYNI 210600Z VRB02KT CAVOK 24/20 Q1020 NOSIG
07:30
V
24 °C 10 km+ - Var Var 1 kt METAR LYNI 210530Z VRB01KT CAVOK 24/20 Q1019 NOSIG
07:00
V
22 °C 10 km+ - Var Var 1 kt METAR LYNI 210500Z VRB01KT CAVOK 22/19 Q1019 NOSIG
06:30
V
20 °C 10 km+ - 360° 360° 0 kt METAR LYNI 210430Z 00000KT CAVOK 20/19 Q1019 NOSIG
06:00
V
19 °C 10 km+ - Var Var 2 kt METAR LYNI 210400Z VRB02KT CAVOK 19/18 Q1019 NOSIG
05:30
V
20 °C 10 km+ - Var Var 1 kt METAR LYNI 210330Z VRB01KT CAVOK 20/18 Q1019 NOSIG
05:00
V
21 °C 10 km+ - 360° 360° 0 kt METAR LYNI 210300Z 00000KT CAVOK 21/18 Q1019 NOSIG
04:30
V
20 °C 10 km+ - 360° 360° 0 kt METAR LYNI 210230Z 00000KT CAVOK 20/19 Q1019 NOSIG
04:00
V
21 °C 10 km+ - 360° 360° 0 kt METAR LYNI 210200Z 00000KT CAVOK 21/19 Q1019 NOSIG
03:30
V
22 °C 10 km+ - 110° 110° 3 kt METAR LYNI 210130Z 11003KT CAVOK 22/19 Q1019 NOSIG
03:00
V
21 °C 10 km+ - 040° 040° 2 kt METAR LYNI 210100Z 04002KT CAVOK 21/19 Q1019 NOSIG
02:30
V
23 °C 10 km+ - 360° 360° 0 kt METAR LYNI 210030Z 00000KT CAVOK 23/19 Q1019 NOSIG
02:00
V
23 °C 10 km+ - 120° 120° 4 kt METAR LYNI 210000Z 12004KT CAVOK 23/19 Q1020 NOSIG
01:30
V
23 °C 10 km+ - 110° 110° 3 kt METAR LYNI 202330Z 11003KT CAVOK 23/19 Q1019 NOSIG
01:00
V
24 °C 10 km+ - 120° 120° 5 kt METAR LYNI 202300Z 12005KT CAVOK 24/19 Q1019 NOSIG
00:30
V
24 °C 10 km+ - 100° 100° 3 kt METAR LYNI 202230Z 10003KT CAVOK 24/20 Q1019 NOSIG
00:00
V
25 °C 10 km+ - Var Var 2 kt METAR LYNI 202200Z VRB02KT CAVOK 25/20 Q1019 NOSIG

2024年6月20日

时间 代码 天气 温度 能见度 天花板 METAR/SPECI
23:30
V
26 °C 10 km+ - 120° 120° 5 kt METAR LYNI 202130Z 12005KT CAVOK 26/19 Q1019 NOSIG
23:00
V
27 °C 10 km+ - 070° 070° 4 kt METAR LYNI 202100Z 07004KT 040V100 CAVOK 27/18 Q1019 NOSIG
22:30
V
27 °C 10 km+ - Var Var 2 kt METAR LYNI 202030Z VRB02KT CAVOK 27/18 Q1019 NOSIG
22:00
V
29 °C 10 km+ - 050° 050° 5 kt METAR LYNI 202000Z 05005KT CAVOK 29/18 Q1019 NOSIG
21:30
V
29 °C 10 km+ - 060° 060° 5 kt METAR LYNI 201930Z 06005KT CAVOK 29/18 Q1019 NOSIG
21:00
V
29 °C 10 km+ - 360° 360° 3 kt METAR LYNI 201900Z 36003KT 330V070 CAVOK 29/19 Q1018 NOSIG
20:30
V
30 °C 10 km+ - 330° 330° 7 kt METAR LYNI 201830Z 33007KT CAVOK 30/19 Q1018 NOSIG
20:00
V
30 °C 10 km+ - 320° 320° 7 kt METAR LYNI 201800Z 32007KT CAVOK 30/19 Q1018 NOSIG
19:30
V
32 °C 10 km+ - 320° 320° 9 kt METAR LYNI 201730Z 32009KT CAVOK 32/18 Q1018 NOSIG
19:00
V
33 °C 10 km+ - 320° 320° 11 kt METAR LYNI 201700Z 32011KT CAVOK 33/18 Q1018 NOSIG
18:30
V
33 °C 10 km+ - 320° 320° 9 kt METAR LYNI 201630Z 32009KT 290V350 CAVOK 33/18 Q1018 NOSIG
18:00
V
33 °C 10 km+ - 320° 320° 8 kt METAR LYNI 201600Z 32008KT CAVOK 33/18 Q1017 NOSIG
17:30
V
33 °C 10 km+ - 310° 310° 13 kt METAR LYNI 201530Z 31013KT CAVOK 33/18 Q1017 NOSIG
17:00
V
34 °C 10 km+ - 310° 310° 12 kt METAR LYNI 201500Z 31012KT CAVOK 34/18 Q1017 NOSIG
16:30
V
35 °C 10 km+ - 320° 320° 11 kt METAR LYNI 201430Z 32011KT 270V350 CAVOK 35/18 Q1017 NOSIG
16:00
V
35 °C 10 km+ - 300° 300° 11 kt METAR LYNI 201400Z 30011KT 250V340 CAVOK 35/18 Q1017 NOSIG
15:30
V
35 °C 10 km+ - 310° 310° 10 kt METAR LYNI 201330Z 31010KT 250V340 CAVOK 35/18 Q1017 NOSIG
15:00
V
35 °C 10 km+ - 310° 310° 8 kt METAR LYNI 201300Z 31008KT 250V350 CAVOK 35/17 Q1018 NOSIG
14:30
V
35 °C 10 km+ - 320° 320° 8 kt METAR LYNI 201230Z 32008KT 260V010 CAVOK 35/18 Q1018 NOSIG
14:00
V
34 °C 10 km+ - 340° 340° 7 kt METAR LYNI 201200Z 34007KT 290V020 CAVOK 34/18 Q1018 NOSIG
13:30
V
34 °C 10 km+ - 320° 320° 9 kt METAR LYNI 201130Z 32009KT 270V010 CAVOK 34/19 Q1018 NOSIG
13:00
V
33 °C 10 km+ - 310° 310° 8 kt METAR LYNI 201100Z 31008KT 250V010 CAVOK 33/20 Q1019 NOSIG
12:30
V
32 °C 10 km+ - 320° 320° 7 kt METAR LYNI 201030Z 32007KT 270V010 CAVOK 32/20 Q1019 NOSIG
12:00
V
31 °C 10 km+ - 320° 320° 8 kt METAR LYNI 201000Z 32008KT 260V350 CAVOK 31/19 Q1019 NOSIG
11:30
V
30 °C 10 km+ - 330° 330° 8 kt METAR LYNI 200930Z 33008KT 300V360 CAVOK 30/20 Q1019 NOSIG
11:00
V
31 °C 10 km+ - 320° 320° 6 kt METAR LYNI 200900Z 32006KT 220V020 CAVOK 31/19 Q1019 NOSIG
10:30
V
30 °C 10 km+ - Var Var 2 kt METAR LYNI 200830Z VRB02KT CAVOK 30/19 Q1019 BECMG FM1000 32012KT
10:00
V
29 °C 10 km+ - Var Var 1 kt METAR LYNI 200800Z VRB01KT CAVOK 29/18 Q1019 NOSIG
09:30
V
28 °C 10 km+ - 220° 220° 1 kt METAR LYNI 200730Z 22001KT CAVOK 28/18 Q1019 NOSIG
09:00
V
27 °C 10 km+ - Var Var 1 kt METAR LYNI 200700Z VRB01KT CAVOK 27/18 Q1019 NOSIG
08:30
V
26 °C 10 km+ - Var Var 1 kt METAR LYNI 200630Z VRB01KT CAVOK 26/19 Q1019 NOSIG
08:00
V
25 °C 10 km+ - Var Var 2 kt METAR LYNI 200600Z VRB02KT CAVOK 25/18 Q1019 NOSIG
报告变更